sensor_id;sensor_type;location;lat;lon;timestamp;P1;durP1;ratioP1;P2;durP2;ratioP2
84138;SDS011;74250;51.528;6.748;2024-02-16T00:01:34;2.95;;;1.30;;
84138;SDS011;74250;51.528;6.748;2024-02-16T00:04:01;1.92;;;0.82;;
84138;SDS011;74250;51.528;6.748;2024-02-16T00:06:26;3.63;;;1.27;;
84138;SDS011;74250;51.528;6.748;2024-02-16T00:08:52;3.67;;;2.13;;
84138;SDS011;74250;51.528;6.748;2024-02-16T00:11:17;3.55;;;2.00;;
84138;SDS011;74250;51.528;6.748;2024-02-16T00:13:43;4.90;;;0.75;;
84138;SDS011;74250;51.528;6.748;2024-02-16T00:16:08;3.15;;;1.98;;
84138;SDS011;74250;51.528;6.748;2024-02-16T00:18:34;3.50;;;1.70;;
84138;SDS011;74250;51.528;6.748;2024-02-16T00:20:59;3.72;;;1.67;;
84138;SDS011;74250;51.528;6.748;2024-02-16T00:23:27;5.10;;;2.78;;
84138;SDS011;74250;51.528;6.748;2024-02-16T00:25:52;2.53;;;1.17;;
84138;SDS011;74250;51.528;6.748;2024-02-16T00:28:18;2.20;;;1.90;;
84138;SDS011;74250;51.528;6.748;2024-02-16T00:30:43;3.50;;;1.92;;
84138;SDS011;74250;51.528;6.748;2024-02-16T00:33:09;3.45;;;2.15;;
84138;SDS011;74250;51.528;6.748;2024-02-16T00:35:35;5.65;;;2.35;;
84138;SDS011;74250;51.528;6.748;2024-02-16T00:38:00;2.25;;;1.63;;
84138;SDS011;74250;51.528;6.748;2024-02-16T00:40:26;3.08;;;2.67;;
84138;SDS011;74250;51.528;6.748;2024-02-16T00:42:52;3.63;;;1.80;;
84138;SDS011;74250;51.528;6.748;2024-02-16T00:45:17;3.35;;;1.98;;
84138;SDS011;74250;51.528;6.748;2024-02-16T00:47:42;4.10;;;0.77;;
84138;SDS011;74250;51.528;6.748;2024-02-16T00:50:10;2.28;;;1.80;;
84138;SDS011;74250;51.528;6.748;2024-02-16T00:52:35;3.25;;;1.77;;
84138;SDS011;74250;51.528;6.748;2024-02-16T00:55:02;2.00;;;1.65;;
84138;SDS011;74250;51.528;6.748;2024-02-16T00:57:29;2.28;;;0.73;;
84138;SDS011;74250;51.528;6.748;2024-02-16T00:59:54;2.65;;;1.33;;
84138;SDS011;74250;51.528;6.748;2024-02-16T01:02:20;3.60;;;1.58;;
84138;SDS011;74250;51.528;6.748;2024-02-16T01:04:47;8.35;;;1.92;;
84138;SDS011;74250;51.528;6.748;2024-02-16T01:07:12;2.83;;;2.00;;
84138;SDS011;74250;51.528;6.748;2024-02-16T01:09:38;3.63;;;1.60;;
84138;SDS011;74250;51.528;6.748;2024-02-16T01:12:04;3.15;;;1.70;;
84138;SDS011;74250;51.528;6.748;2024-02-16T01:14:29;3.03;;;1.95;;
84138;SDS011;74250;51.528;6.748;2024-02-16T01:16:55;2.33;;;1.55;;
84138;SDS011;74250;51.528;6.748;2024-02-16T01:19:20;3.10;;;2.05;;
84138;SDS011;74250;51.528;6.748;2024-02-16T01:21:45;5.72;;;2.00;;
84138;SDS011;74250;51.528;6.748;2024-02-16T01:24:17;4.55;;;2.35;;
84138;SDS011;74250;51.528;6.748;2024-02-16T01:26:42;2.70;;;1.85;;
84138;SDS011;74250;51.528;6.748;2024-02-16T01:29:07;4.28;;;2.00;;
84138;SDS011;74250;51.528;6.748;2024-02-16T01:31:33;2.95;;;1.55;;
84138;SDS011;74250;51.528;6.748;2024-02-16T01:33:59;5.55;;;2.20;;
84138;SDS011;74250;51.528;6.748;2024-02-16T01:36:24;4.35;;;1.67;;
84138;SDS011;74250;51.528;6.748;2024-02-16T01:38:50;2.70;;;2.50;;
84138;SDS011;74250;51.528;6.748;2024-02-16T01:41:15;3.63;;;2.13;;
84138;SDS011;74250;51.528;6.748;2024-02-16T01:43:40;5.22;;;1.77;;
84138;SDS011;74250;51.528;6.748;2024-02-16T01:46:06;4.80;;;1.77;;
84138;SDS011;74250;51.528;6.748;2024-02-16T01:48:31;4.13;;;1.73;;
84138;SDS011;74250;51.528;6.748;2024-02-16T01:50:57;2.60;;;2.08;;
84138;SDS011;74250;51.528;6.748;2024-02-16T01:53:22;2.88;;;1.73;;
84138;SDS011;74250;51.528;6.748;2024-02-16T01:55:48;4.07;;;2.10;;
84138;SDS011;74250;51.528;6.748;2024-02-16T01:58:14;6.20;;;1.05;;
84138;SDS011;74250;51.528;6.748;2024-02-16T02:00:42;3.92;;;1.70;;
84138;SDS011;74250;51.528;6.748;2024-02-16T02:03:08;2.97;;;1.95;;
84138;SDS011;74250;51.528;6.748;2024-02-16T02:05:33;3.47;;;1.85;;
84138;SDS011;74250;51.528;6.748;2024-02-16T02:07:58;4.18;;;1.60;;
84138;SDS011;74250;51.528;6.748;2024-02-16T02:10:24;3.50;;;1.85;;
84138;SDS011;74250;51.528;6.748;2024-02-16T02:12:50;3.40;;;1.70;;
84138;SDS011;74250;51.528;6.748;2024-02-16T02:15:16;2.50;;;2.00;;
84138;SDS011;74250;51.528;6.748;2024-02-16T02:17:41;3.08;;;1.85;;
84138;SDS011;74250;51.528;6.748;2024-02-16T02:20:07;3.17;;;1.42;;
84138;SDS011;74250;51.528;6.748;2024-02-16T02:22:35;3.15;;;2.17;;
84138;SDS011;74250;51.528;6.748;2024-02-16T02:25:03;4.55;;;1.70;;
84138;SDS011;74250;51.528;6.748;2024-02-16T02:27:28;5.63;;;1.63;;
84138;SDS011;74250;51.528;6.748;2024-02-16T02:29:55;3.20;;;1.88;;
84138;SDS011;74250;51.528;6.748;2024-02-16T02:32:21;4.15;;;2.00;;
84138;SDS011;74250;51.528;6.748;2024-02-16T02:34:46;3.13;;;2.33;;
84138;SDS011;74250;51.528;6.748;2024-02-16T02:37:12;3.72;;;2.08;;
84138;SDS011;74250;51.528;6.748;2024-02-16T02:39:37;3.65;;;1.67;;
84138;SDS011;74250;51.528;6.748;2024-02-16T02:42:02;3.67;;;1.95;;
84138;SDS011;74250;51.528;6.748;2024-02-16T02:44:28;6.32;;;2.42;;
84138;SDS011;74250;51.528;6.748;2024-02-16T02:46:56;3.90;;;1.90;;
84138;SDS011;74250;51.528;6.748;2024-02-16T02:49:21;3.58;;;1.48;;
84138;SDS011;74250;51.528;6.748;2024-02-16T02:51:47;6.88;;;3.15;;
84138;SDS011;74250;51.528;6.748;2024-02-16T02:54:12;3.53;;;1.65;;
84138;SDS011;74250;51.528;6.748;2024-02-16T02:56:37;4.90;;;1.88;;
84138;SDS011;74250;51.528;6.748;2024-02-16T02:59:02;3.03;;;2.38;;
84138;SDS011;74250;51.528;6.748;2024-02-16T03:01:30;5.88;;;2.95;;
84138;SDS011;74250;51.528;6.748;2024-02-16T03:03:56;4.20;;;1.60;;
84138;SDS011;74250;51.528;6.748;2024-02-16T03:06:22;3.08;;;2.03;;
84138;SDS011;74250;51.528;6.748;2024-02-16T03:08:48;3.70;;;1.58;;
84138;SDS011;74250;51.528;6.748;2024-02-16T03:11:14;2.30;;;0.65;;
84138;SDS011;74250;51.528;6.748;2024-02-16T03:13:39;3.75;;;1.58;;
84138;SDS011;74250;51.528;6.748;2024-02-16T03:16:05;4.97;;;1.60;;
84138;SDS011;74250;51.528;6.748;2024-02-16T03:18:30;2.55;;;1.65;;
84138;SDS011;74250;51.528;6.748;2024-02-16T03:20:57;3.53;;;2.13;;
84138;SDS011;74250;51.528;6.748;2024-02-16T03:23:22;3.35;;;1.63;;
84138;SDS011;74250;51.528;6.748;2024-02-16T03:25:48;3.60;;;1.42;;
84138;SDS011;74250;51.528;6.748;2024-02-16T03:28:14;2.65;;;0.52;;
84138;SDS011;74250;51.528;6.748;2024-02-16T03:30:39;4.03;;;1.45;;
84138;SDS011;74250;51.528;6.748;2024-02-16T03:33:05;1.73;;;1.52;;
84138;SDS011;74250;51.528;6.748;2024-02-16T03:35:30;3.63;;;1.92;;
84138;SDS011;74250;51.528;6.748;2024-02-16T03:37:56;3.17;;;1.35;;
84138;SDS011;74250;51.528;6.748;2024-02-16T03:40:22;2.47;;;2.15;;
84138;SDS011;74250;51.528;6.748;2024-02-16T03:45:13;4.82;;;2.25;;
84138;SDS011;74250;51.528;6.748;2024-02-16T03:47:40;3.28;;;1.58;;
84138;SDS011;74250;51.528;6.748;2024-02-16T03:50:06;6.38;;;2.00;;
84138;SDS011;74250;51.528;6.748;2024-02-16T03:52:32;2.53;;;1.92;;
84138;SDS011;74250;51.528;6.748;2024-02-16T03:54:57;3.88;;;2.90;;
84138;SDS011;74250;51.528;6.748;2024-02-16T03:57:23;3.10;;;2.13;;
84138;SDS011;74250;51.528;6.748;2024-02-16T03:59:48;8.90;;;4.43;;
84138;SDS011;74250;51.528;6.748;2024-02-16T04:02:13;3.97;;;2.38;;
84138;SDS011;74250;51.528;6.748;2024-02-16T04:04:39;3.92;;;1.77;;
84138;SDS011;74250;51.528;6.748;2024-02-16T04:07:04;4.07;;;1.63;;
84138;SDS011;74250;51.528;6.748;2024-02-16T04:09:32;3.05;;;1.00;;
84138;SDS011;74250;51.528;6.748;2024-02-16T04:11:57;3.75;;;1.77;;
84138;SDS011;74250;51.528;6.748;2024-02-16T04:14:23;3.25;;;1.58;;
84138;SDS011;74250;51.528;6.748;2024-02-16T04:16:48;3.95;;;2.97;;
84138;SDS011;74250;51.528;6.748;2024-02-16T04:19:14;3.30;;;1.75;;
84138;SDS011;74250;51.528;6.748;2024-02-16T04:21:39;2.67;;;1.55;;
84138;SDS011;74250;51.528;6.748;2024-02-16T04:24:05;2.70;;;1.77;;
84138;SDS011;74250;51.528;6.748;2024-02-16T04:26:30;2.97;;;0.50;;
84138;SDS011;74250;51.528;6.748;2024-02-16T04:28:56;4.45;;;2.22;;
84138;SDS011;74250;51.528;6.748;2024-02-16T04:31:21;4.82;;;1.45;;
84138;SDS011;74250;51.528;6.748;2024-02-16T04:33:46;3.72;;;1.10;;
84138;SDS011;74250;51.528;6.748;2024-02-16T04:36:12;2.85;;;2.05;;
84138;SDS011;74250;51.528;6.748;2024-02-16T04:38:38;1.85;;;0.75;;
84138;SDS011;74250;51.528;6.748;2024-02-16T04:41:06;3.78;;;1.55;;
84138;SDS011;74250;51.528;6.748;2024-02-16T04:43:32;5.40;;;0.93;;
84138;SDS011;74250;51.528;6.748;2024-02-16T04:45:57;2.08;;;0.52;;
84138;SDS011;74250;51.528;6.748;2024-02-16T04:48:23;3.90;;;1.83;;
84138;SDS011;74250;51.528;6.748;2024-02-16T04:50:49;3.85;;;1.80;;
84138;SDS011;74250;51.528;6.748;2024-02-16T04:53:14;6.03;;;1.15;;
84138;SDS011;74250;51.528;6.748;2024-02-16T04:55:39;5.07;;;1.17;;
84138;SDS011;74250;51.528;6.748;2024-02-16T04:58:05;3.13;;;1.02;;
84138;SDS011;74250;51.528;6.748;2024-02-16T05:00:34;5.30;;;1.30;;
84138;SDS011;74250;51.528;6.748;2024-02-16T05:02:59;2.95;;;0.70;;
84138;SDS011;74250;51.528;6.748;2024-02-16T05:05:25;4.78;;;1.10;;
84138;SDS011;74250;51.528;6.748;2024-02-16T05:07:50;4.60;;;1.20;;
84138;SDS011;74250;51.528;6.748;2024-02-16T05:10:16;2.45;;;1.58;;
84138;SDS011;74250;51.528;6.748;2024-02-16T05:12:41;9.48;;;2.42;;
84138;SDS011;74250;51.528;6.748;2024-02-16T05:15:07;5.63;;;1.85;;
84138;SDS011;74250;51.528;6.748;2024-02-16T05:17:32;3.75;;;2.10;;
84138;SDS011;74250;51.528;6.748;2024-02-16T05:19:58;3.25;;;0.90;;
84138;SDS011;74250;51.528;6.748;2024-02-16T05:22:23;4.38;;;0.80;;
84138;SDS011;74250;51.528;6.748;2024-02-16T05:24:49;4.57;;;2.50;;
84138;SDS011;74250;51.528;6.748;2024-02-16T05:27:14;5.00;;;2.95;;
84138;SDS011;74250;51.528;6.748;2024-02-16T05:29:40;5.13;;;1.23;;
84138;SDS011;74250;51.528;6.748;2024-02-16T05:32:05;4.03;;;2.40;;
84138;SDS011;74250;51.528;6.748;2024-02-16T05:34:31;6.10;;;2.33;;
84138;SDS011;74250;51.528;6.748;2024-02-16T05:37:03;4.57;;;1.60;;
84138;SDS011;74250;51.528;6.748;2024-02-16T05:39:30;3.05;;;2.03;;
84138;SDS011;74250;51.528;6.748;2024-02-16T05:41:57;5.65;;;3.60;;
84138;SDS011;74250;51.528;6.748;2024-02-16T05:44:23;5.10;;;2.38;;
84138;SDS011;74250;51.528;6.748;2024-02-16T05:46:49;4.95;;;2.55;;
84138;SDS011;74250;51.528;6.748;2024-02-16T05:49:14;4.13;;;2.75;;
84138;SDS011;74250;51.528;6.748;2024-02-16T05:51:41;4.40;;;2.25;;
84138;SDS011;74250;51.528;6.748;2024-02-16T05:54:07;3.78;;;2.15;;
84138;SDS011;74250;51.528;6.748;2024-02-16T05:56:33;4.13;;;2.40;;
84138;SDS011;74250;51.528;6.748;2024-02-16T05:58:59;3.33;;;2.75;;
84138;SDS011;74250;51.528;6.748;2024-02-16T06:01:25;3.17;;;2.42;;
84138;SDS011;74250;51.528;6.748;2024-02-16T06:03:51;3.90;;;2.20;;
84138;SDS011;74250;51.528;6.748;2024-02-16T06:06:18;3.78;;;2.10;;
84138;SDS011;74250;51.528;6.748;2024-02-16T06:08:43;8.63;;;1.10;;
84138;SDS011;74250;51.528;6.748;2024-02-16T06:11:09;5.40;;;1.63;;
84138;SDS011;74250;51.528;6.748;2024-02-16T06:13:34;3.75;;;2.05;;
84138;SDS011;74250;51.528;6.748;2024-02-16T06:16:00;4.53;;;1.75;;
84138;SDS011;74250;51.528;6.748;2024-02-16T06:18:25;4.10;;;2.22;;
84138;SDS011;74250;51.528;6.748;2024-02-16T06:20:54;3.80;;;1.90;;
84138;SDS011;74250;51.528;6.748;2024-02-16T06:23:19;4.72;;;2.92;;
84138;SDS011;74250;51.528;6.748;2024-02-16T06:25:45;4.47;;;1.85;;
84138;SDS011;74250;51.528;6.748;2024-02-16T06:28:10;4.22;;;2.75;;
84138;SDS011;74250;51.528;6.748;2024-02-16T06:30:35;6.10;;;2.15;;
84138;SDS011;74250;51.528;6.748;2024-02-16T06:33:01;6.35;;;3.75;;
84138;SDS011;74250;51.528;6.748;2024-02-16T06:35:27;5.47;;;2.22;;
84138;SDS011;74250;51.528;6.748;2024-02-16T06:37:52;4.28;;;2.58;;
84138;SDS011;74250;51.528;6.748;2024-02-16T06:40:18;4.60;;;2.83;;
84138;SDS011;74250;51.528;6.748;2024-02-16T06:42:44;3.80;;;2.13;;
84138;SDS011;74250;51.528;6.748;2024-02-16T06:45:09;3.45;;;2.00;;
84138;SDS011;74250;51.528;6.748;2024-02-16T06:47:34;4.35;;;2.58;;
84138;SDS011;74250;51.528;6.748;2024-02-16T06:50:00;3.45;;;2.53;;
84138;SDS011;74250;51.528;6.748;2024-02-16T06:52:25;4.65;;;1.95;;
84138;SDS011;74250;51.528;6.748;2024-02-16T06:54:51;5.25;;;2.65;;
84138;SDS011;74250;51.528;6.748;2024-02-16T06:57:18;6.30;;;2.30;;
84138;SDS011;74250;51.528;6.748;2024-02-16T06:59:44;4.63;;;2.60;;
84138;SDS011;74250;51.528;6.748;2024-02-16T07:02:10;5.55;;;3.97;;
84138;SDS011;74250;51.528;6.748;2024-02-16T07:04:36;5.68;;;2.03;;
84138;SDS011;74250;51.528;6.748;2024-02-16T07:07:01;4.97;;;2.03;;
84138;SDS011;74250;51.528;6.748;2024-02-16T07:09:45;4.43;;;2.13;;
84138;SDS011;74250;51.528;6.748;2024-02-16T07:12:11;4.07;;;2.83;;
84138;SDS011;74250;51.528;6.748;2024-02-16T07:14:37;5.00;;;2.83;;
84138;SDS011;74250;51.528;6.748;2024-02-16T07:17:03;4.45;;;2.83;;
84138;SDS011;74250;51.528;6.748;2024-02-16T07:19:28;5.70;;;3.53;;
84138;SDS011;74250;51.528;6.748;2024-02-16T07:21:53;6.03;;;2.80;;
84138;SDS011;74250;51.528;6.748;2024-02-16T07:24:19;8.80;;;3.97;;
84138;SDS011;74250;51.528;6.748;2024-02-16T07:26:49;6.47;;;2.85;;
84138;SDS011;74250;51.528;6.748;2024-02-16T07:29:14;9.02;;;3.70;;
84138;SDS011;74250;51.528;6.748;2024-02-16T07:31:41;4.85;;;2.53;;
84138;SDS011;74250;51.528;6.748;2024-02-16T07:34:06;5.65;;;2.90;;
84138;SDS011;74250;51.528;6.748;2024-02-16T07:36:33;5.75;;;3.08;;
84138;SDS011;74250;51.528;6.748;2024-02-16T07:38:59;5.50;;;2.72;;
84138;SDS011;74250;51.528;6.748;2024-02-16T07:41:25;6.40;;;4.68;;
84138;SDS011;74250;51.528;6.748;2024-02-16T07:43:50;8.85;;;3.75;;
84138;SDS011;74250;51.528;6.748;2024-02-16T07:46:16;12.23;;;3.88;;
84138;SDS011;74250;51.528;6.748;2024-02-16T07:48:43;11.68;;;4.85;;
84138;SDS011;74250;51.528;6.748;2024-02-16T07:51:09;7.22;;;2.40;;
84138;SDS011;74250;51.528;6.748;2024-02-16T07:53:34;9.52;;;4.03;;
84138;SDS011;74250;51.528;6.748;2024-02-16T07:58:26;8.97;;;4.07;;
84138;SDS011;74250;51.528;6.748;2024-02-16T08:03:20;12.35;;;6.30;;
84138;SDS011;74250;51.528;6.748;2024-02-16T08:05:45;12.18;;;6.00;;
84138;SDS011;74250;51.528;6.748;2024-02-16T08:08:12;14.02;;;4.43;;
84138;SDS011;74250;51.528;6.748;2024-02-16T08:10:48;20.65;;;9.85;;
84138;SDS011;74250;51.528;6.748;2024-02-16T08:13:13;16.45;;;6.40;;
84138;SDS011;74250;51.528;6.748;2024-02-16T08:15:39;16.13;;;5.85;;
84138;SDS011;74250;51.528;6.748;2024-02-16T08:18:04;13.95;;;5.38;;
84138;SDS011;74250;51.528;6.748;2024-02-16T08:20:30;14.43;;;4.28;;
84138;SDS011;74250;51.528;6.748;2024-02-16T08:22:56;13.13;;;6.00;;
84138;SDS011;74250;51.528;6.748;2024-02-16T08:25:21;12.40;;;3.35;;
84138;SDS011;74250;51.528;6.748;2024-02-16T08:27:47;8.70;;;5.00;;
84138;SDS011;74250;51.528;6.748;2024-02-16T08:30:14;11.82;;;7.43;;
84138;SDS011;74250;51.528;6.748;2024-02-16T08:32:39;13.45;;;4.93;;
84138;SDS011;74250;51.528;6.748;2024-02-16T08:35:05;16.77;;;6.00;;
84138;SDS011;74250;51.528;6.748;2024-02-16T08:37:30;20.88;;;9.23;;
84138;SDS011;74250;51.528;6.748;2024-02-16T08:39:56;22.48;;;9.05;;
84138;SDS011;74250;51.528;6.748;2024-02-16T08:42:21;12.73;;;7.30;;
84138;SDS011;74250;51.528;6.748;2024-02-16T08:47:13;13.00;;;6.80;;
84138;SDS011;74250;51.528;6.748;2024-02-16T08:49:39;16.73;;;8.10;;
84138;SDS011;74250;51.528;6.748;2024-02-16T08:52:05;13.80;;;6.25;;
84138;SDS011;74250;51.528;6.748;2024-02-16T08:54:31;10.55;;;4.88;;
84138;SDS011;74250;51.528;6.748;2024-02-16T08:56:56;12.95;;;4.88;;
84138;SDS011;74250;51.528;6.748;2024-02-16T08:59:22;12.45;;;5.57;;
84138;SDS011;74250;51.528;6.748;2024-02-16T09:01:47;11.25;;;5.40;;
84138;SDS011;74250;51.528;6.748;2024-02-16T09:04:13;12.95;;;5.60;;
84138;SDS011;74250;51.528;6.748;2024-02-16T09:06:38;13.73;;;5.30;;
84138;SDS011;74250;51.528;6.748;2024-02-16T09:09:04;10.82;;;5.20;;
84138;SDS011;74250;51.528;6.748;2024-02-16T09:11:29;11.05;;;5.57;;
84138;SDS011;74250;51.528;6.748;2024-02-16T09:13:55;13.02;;;5.65;;
84138;SDS011;74250;51.528;6.748;2024-02-16T09:16:20;17.08;;;3.92;;
84138;SDS011;74250;51.528;6.748;2024-02-16T09:18:45;17.23;;;4.22;;
84138;SDS011;74250;51.528;6.748;2024-02-16T09:21:13;14.00;;;5.95;;
84138;SDS011;74250;51.528;6.748;2024-02-16T09:23:39;14.68;;;4.32;;
84138;SDS011;74250;51.528;6.748;2024-02-16T09:26:04;15.55;;;4.75;;
84138;SDS011;74250;51.528;6.748;2024-02-16T09:28:30;9.23;;;4.97;;
84138;SDS011;74250;51.528;6.748;2024-02-16T09:30:57;11.27;;;5.10;;
84138;SDS011;74250;51.528;6.748;2024-02-16T09:33:23;12.85;;;4.35;;
84138;SDS011;74250;51.528;6.748;2024-02-16T09:35:49;9.98;;;3.70;;
84138;SDS011;74250;51.528;6.748;2024-02-16T09:38:14;16.02;;;5.35;;
84138;SDS011;74250;51.528;6.748;2024-02-16T09:40:40;9.10;;;4.55;;
84138;SDS011;74250;51.528;6.748;2024-02-16T09:43:05;7.53;;;4.55;;
84138;SDS011;74250;51.528;6.748;2024-02-16T09:45:30;9.65;;;4.28;;
84138;SDS011;74250;51.528;6.748;2024-02-16T09:47:57;10.13;;;5.05;;
84138;SDS011;74250;51.528;6.748;2024-02-16T09:50:23;8.40;;;4.18;;
84138;SDS011;74250;51.528;6.748;2024-02-16T09:52:49;13.52;;;5.72;;
84138;SDS011;74250;51.528;6.748;2024-02-16T09:55:15;9.68;;;4.40;;
84138;SDS011;74250;51.528;6.748;2024-02-16T10:00:08;9.77;;;4.07;;
84138;SDS011;74250;51.528;6.748;2024-02-16T10:05:16;7.78;;;3.47;;
84138;SDS011;74250;51.528;6.748;2024-02-16T10:07:44;8.27;;;3.45;;
84138;SDS011;74250;51.528;6.748;2024-02-16T10:10:25;8.00;;;3.75;;
84138;SDS011;74250;51.528;6.748;2024-02-16T10:13:01;13.77;;;4.32;;
84138;SDS011;74250;51.528;6.748;2024-02-16T10:15:33;8.52;;;4.47;;
84138;SDS011;74250;51.528;6.748;2024-02-16T10:18:03;8.63;;;4.15;;
84138;SDS011;74250;51.528;6.748;2024-02-16T10:20:29;6.93;;;3.72;;
84138;SDS011;74250;51.528;6.748;2024-02-16T10:23:05;7.05;;;4.03;;
84138;SDS011;74250;51.528;6.748;2024-02-16T10:25:43;9.15;;;2.60;;
84138;SDS011;74250;51.528;6.748;2024-02-16T10:28:09;5.30;;;3.20;;
84138;SDS011;74250;51.528;6.748;2024-02-16T10:30:39;7.95;;;3.45;;
84138;SDS011;74250;51.528;6.748;2024-02-16T10:33:06;6.80;;;2.92;;
84138;SDS011;74250;51.528;6.748;2024-02-16T10:35:35;7.82;;;3.65;;
84138;SDS011;74250;51.528;6.748;2024-02-16T10:38:01;7.30;;;2.95;;
84138;SDS011;74250;51.528;6.748;2024-02-16T10:40:33;4.57;;;3.17;;
84138;SDS011;74250;51.528;6.748;2024-02-16T10:45:28;6.20;;;3.35;;
84138;SDS011;74250;51.528;6.748;2024-02-16T10:47:54;6.13;;;3.13;;
84138;SDS011;74250;51.528;6.748;2024-02-16T10:50:19;5.75;;;3.00;;
84138;SDS011;74250;51.528;6.748;2024-02-16T10:52:45;6.63;;;3.10;;
84138;SDS011;74250;51.528;6.748;2024-02-16T10:55:12;7.45;;;3.05;;
84138;SDS011;74250;51.528;6.748;2024-02-16T10:57:39;6.95;;;2.97;;
84138;SDS011;74250;51.528;6.748;2024-02-16T11:00:08;6.28;;;2.72;;
84138;SDS011;74250;51.528;6.748;2024-02-16T11:02:56;8.70;;;3.78;;
84138;SDS011;74250;51.528;6.748;2024-02-16T11:05:34;5.45;;;3.15;;
84138;SDS011;74250;51.528;6.748;2024-02-16T11:08:03;9.57;;;3.70;;
84138;SDS011;74250;51.528;6.748;2024-02-16T11:10:31;5.68;;;3.80;;
84138;SDS011;74250;51.528;6.748;2024-02-16T11:13:01;6.70;;;3.72;;
84138;SDS011;74250;51.528;6.748;2024-02-16T11:15:29;10.00;;;3.60;;
84138;SDS011;74250;51.528;6.748;2024-02-16T11:18:02;6.03;;;3.55;;
84138;SDS011;74250;51.528;6.748;2024-02-16T11:20:29;12.30;;;6.03;;
84138;SDS011;74250;51.528;6.748;2024-02-16T11:23:05;7.90;;;4.55;;
84138;SDS011;74250;51.528;6.748;2024-02-16T11:25:34;5.93;;;3.90;;
84138;SDS011;74250;51.528;6.748;2024-02-16T11:28:01;10.82;;;4.10;;
84138;SDS011;74250;51.528;6.748;2024-02-16T11:30:27;6.63;;;3.58;;
84138;SDS011;74250;51.528;6.748;2024-02-16T11:32:53;6.22;;;4.28;;
84138;SDS011;74250;51.528;6.748;2024-02-16T11:35:18;7.03;;;3.45;;
84138;SDS011;74250;51.528;6.748;2024-02-16T11:37:44;5.43;;;2.08;;
84138;SDS011;74250;51.528;6.748;2024-02-16T11:40:12;5.15;;;3.58;;
84138;SDS011;74250;51.528;6.748;2024-02-16T11:42:37;7.97;;;2.72;;
84138;SDS011;74250;51.528;6.748;2024-02-16T11:47:29;7.97;;;3.78;;
84138;SDS011;74250;51.528;6.748;2024-02-16T11:52:30;7.95;;;2.92;;
84138;SDS011;74250;51.528;6.748;2024-02-16T11:54:57;9.10;;;3.97;;
84138;SDS011;74250;51.528;6.748;2024-02-16T11:57:25;8.32;;;4.68;;
84138;SDS011;74250;51.528;6.748;2024-02-16T11:59:51;10.23;;;4.05;;
84138;SDS011;74250;51.528;6.748;2024-02-16T12:02:19;8.75;;;5.45;;
84138;SDS011;74250;51.528;6.748;2024-02-16T12:04:47;8.77;;;4.68;;
84138;SDS011;74250;51.528;6.748;2024-02-16T12:07:13;8.45;;;4.55;;
84138;SDS011;74250;51.528;6.748;2024-02-16T12:09:39;5.15;;;2.42;;
84138;SDS011;74250;51.528;6.748;2024-02-16T12:12:05;9.45;;;4.07;;
84138;SDS011;74250;51.528;6.748;2024-02-16T12:14:31;11.43;;;5.22;;
84138;SDS011;74250;51.528;6.748;2024-02-16T12:17:00;28.67;;;5.30;;
84138;SDS011;74250;51.528;6.748;2024-02-16T12:19:26;8.82;;;4.82;;
84138;SDS011;74250;51.528;6.748;2024-02-16T12:21:51;7.13;;;4.57;;
84138;SDS011;74250;51.528;6.748;2024-02-16T12:24:18;10.30;;;5.00;;
84138;SDS011;74250;51.528;6.748;2024-02-16T12:26:43;9.27;;;4.43;;
84138;SDS011;74250;51.528;6.748;2024-02-16T12:29:11;8.75;;;5.85;;
84138;SDS011;74250;51.528;6.748;2024-02-16T12:31:40;9.95;;;4.90;;
84138;SDS011;74250;51.528;6.748;2024-02-16T12:34:06;12.98;;;6.20;;
84138;SDS011;74250;51.528;6.748;2024-02-16T12:38:59;12.43;;;4.78;;
84138;SDS011;74250;51.528;6.748;2024-02-16T12:41:24;10.85;;;4.95;;
84138;SDS011;74250;51.528;6.748;2024-02-16T12:43:50;9.07;;;5.22;;
84138;SDS011;74250;51.528;6.748;2024-02-16T12:46:15;9.68;;;3.80;;
84138;SDS011;74250;51.528;6.748;2024-02-16T12:48:42;8.70;;;5.57;;
84138;SDS011;74250;51.528;6.748;2024-02-16T12:51:08;11.45;;;5.82;;
84138;SDS011;74250;51.528;6.748;2024-02-16T12:53:33;8.55;;;4.53;;
84138;SDS011;74250;51.528;6.748;2024-02-16T12:56:06;11.45;;;6.03;;
84138;SDS011;74250;51.528;6.748;2024-02-16T12:58:32;10.07;;;4.75;;
84138;SDS011;74250;51.528;6.748;2024-02-16T13:00:57;10.20;;;4.78;;
84138;SDS011;74250;51.528;6.748;2024-02-16T13:03:23;9.18;;;5.97;;
84138;SDS011;74250;51.528;6.748;2024-02-16T13:05:48;7.35;;;4.68;;
84138;SDS011;74250;51.528;6.748;2024-02-16T13:08:13;9.35;;;6.13;;
84138;SDS011;74250;51.528;6.748;2024-02-16T13:10:39;9.60;;;5.88;;
84138;SDS011;74250;51.528;6.748;2024-02-16T13:13:05;9.55;;;5.47;;
84138;SDS011;74250;51.528;6.748;2024-02-16T13:15:30;11.75;;;6.88;;
84138;SDS011;74250;51.528;6.748;2024-02-16T13:17:56;9.02;;;5.32;;
84138;SDS011;74250;51.528;6.748;2024-02-16T13:20:22;7.90;;;5.78;;
84138;SDS011;74250;51.528;6.748;2024-02-16T13:22:47;12.35;;;5.90;;
84138;SDS011;74250;51.528;6.748;2024-02-16T13:25:12;14.13;;;7.10;;
84138;SDS011;74250;51.528;6.748;2024-02-16T13:27:37;12.07;;;6.78;;
84138;SDS011;74250;51.528;6.748;2024-02-16T13:30:03;13.55;;;7.65;;
84138;SDS011;74250;51.528;6.748;2024-02-16T13:32:31;11.95;;;7.32;;
84138;SDS011;74250;51.528;6.748;2024-02-16T13:34:57;10.40;;;6.63;;
84138;SDS011;74250;51.528;6.748;2024-02-16T13:37:23;16.77;;;9.30;;
84138;SDS011;74250;51.528;6.748;2024-02-16T13:39:48;15.65;;;9.35;;
84138;SDS011;74250;51.528;6.748;2024-02-16T13:42:14;12.45;;;5.93;;
84138;SDS011;74250;51.528;6.748;2024-02-16T13:44:40;12.45;;;9.30;;
84138;SDS011;74250;51.528;6.748;2024-02-16T13:47:05;13.70;;;9.38;;
84138;SDS011;74250;51.528;6.748;2024-02-16T13:49:31;14.98;;;7.78;;
84138;SDS011;74250;51.528;6.748;2024-02-16T13:51:56;12.20;;;8.90;;
84138;SDS011;74250;51.528;6.748;2024-02-16T13:54:24;15.27;;;9.13;;
84138;SDS011;74250;51.528;6.748;2024-02-16T13:56:49;15.10;;;8.85;;
84138;SDS011;74250;51.528;6.748;2024-02-16T13:59:15;15.05;;;9.27;;
84138;SDS011;74250;51.528;6.748;2024-02-16T14:01:41;13.60;;;10.93;;
84138;SDS011;74250;51.528;6.748;2024-02-16T14:04:06;17.92;;;10.18;;
84138;SDS011;74250;51.528;6.748;2024-02-16T14:06:31;14.88;;;9.00;;
84138;SDS011;74250;51.528;6.748;2024-02-16T14:08:57;10.27;;;8.60;;
84138;SDS011;74250;51.528;6.748;2024-02-16T14:11:22;11.85;;;9.30;;
84138;SDS011;74250;51.528;6.748;2024-02-16T14:13:48;10.65;;;7.53;;
84138;SDS011;74250;51.528;6.748;2024-02-16T14:16:13;12.00;;;8.13;;
84138;SDS011;74250;51.528;6.748;2024-02-16T14:18:39;13.02;;;9.25;;
84138;SDS011;74250;51.528;6.748;2024-02-16T14:21:04;15.80;;;7.32;;
84138;SDS011;74250;51.528;6.748;2024-02-16T14:23:30;9.35;;;6.22;;
84138;SDS011;74250;51.528;6.748;2024-02-16T14:25:55;9.10;;;6.80;;
84138;SDS011;74250;51.528;6.748;2024-02-16T14:28:21;10.45;;;7.20;;
84138;SDS011;74250;51.528;6.748;2024-02-16T14:30:46;12.55;;;7.05;;
84138;SDS011;74250;51.528;6.748;2024-02-16T14:33:12;11.15;;;8.10;;
84138;SDS011;74250;51.528;6.748;2024-02-16T14:35:37;8.65;;;6.47;;
84138;SDS011;74250;51.528;6.748;2024-02-16T14:38:03;9.40;;;6.90;;
84138;SDS011;74250;51.528;6.748;2024-02-16T14:40:30;8.02;;;5.90;;
84138;SDS011;74250;51.528;6.748;2024-02-16T14:42:55;8.50;;;6.13;;
84138;SDS011;74250;51.528;6.748;2024-02-16T14:45:22;9.00;;;6.00;;
84138;SDS011;74250;51.528;6.748;2024-02-16T14:47:49;8.07;;;6.43;;
84138;SDS011;74250;51.528;6.748;2024-02-16T14:50:14;8.02;;;6.10;;
84138;SDS011;74250;51.528;6.748;2024-02-16T14:52:41;9.20;;;6.93;;
84138;SDS011;74250;51.528;6.748;2024-02-16T14:55:07;12.45;;;7.28;;
84138;SDS011;74250;51.528;6.748;2024-02-16T14:57:38;7.68;;;5.68;;
84138;SDS011;74250;51.528;6.748;2024-02-16T15:00:07;7.43;;;6.57;;
84138;SDS011;74250;51.528;6.748;2024-02-16T15:02:33;7.00;;;6.30;;
84138;SDS011;74250;51.528;6.748;2024-02-16T15:04:59;10.43;;;7.05;;